METAR Data

Data at: 0633 UTC 28 Sep 2022

METAR for:KBML (Berlin Muni, NH, US)
Text:KBML 280552Z AUTO 00000KT 10SM CLR 07/06 A2989 RMK AO2 SLP124 T00720061 10133 20067 53009
Temperature: 7.2°C ( 45°F)
Dewpoint: 6.1°C ( 43°F) [RH = 93%]
Pressure (altimeter):29.89 inches Hg (1012.3 mb) [Sea level pressure: 1012.4 mb]
Winds:calm
Visibility:10 or more sm (16+ km)
Ceiling:at least 12,000 feet AGL
Clouds:sky clear below 12,000 feet AGL
QC Flag:automated observation with no human augmentation